sensor_id;sensor_type;location;lat;lon;timestamp;temperature;humidity
81902;DHT22;71369;50.796;3.290;2024-03-22T00:01:58;11.70;99.90
81902;DHT22;71369;50.796;3.290;2024-03-22T00:04:25;11.60;99.90
81902;DHT22;71369;50.796;3.290;2024-03-22T00:06:51;11.60;99.90
81902;DHT22;71369;50.796;3.290;2024-03-22T00:09:17;11.50;99.90
81902;DHT22;71369;50.796;3.290;2024-03-22T00:11:43;11.50;99.90
81902;DHT22;71369;50.796;3.290;2024-03-22T00:14:11;11.40;99.90
81902;DHT22;71369;50.796;3.290;2024-03-22T00:16:38;11.30;99.90
81902;DHT22;71369;50.796;3.290;2024-03-22T00:19:04;11.30;99.90
81902;DHT22;71369;50.796;3.290;2024-03-22T00:21:30;11.30;99.90
81902;DHT22;71369;50.796;3.290;2024-03-22T00:23:57;11.20;99.90
81902;DHT22;71369;50.796;3.290;2024-03-22T00:26:23;11.20;99.90
81902;DHT22;71369;50.796;3.290;2024-03-22T00:28:49;11.10;99.90
81902;DHT22;71369;50.796;3.290;2024-03-22T00:31:14;11.20;99.90
81902;DHT22;71369;50.796;3.290;2024-03-22T00:33:41;11.10;99.90
81902;DHT22;71369;50.796;3.290;2024-03-22T00:36:07;11.10;99.90
81902;DHT22;71369;50.796;3.290;2024-03-22T00:38:33;11.00;99.90
81902;DHT22;71369;50.796;3.290;2024-03-22T00:40:59;11.00;99.90
81902;DHT22;71369;50.796;3.290;2024-03-22T00:43:24;11.00;99.90
81902;DHT22;71369;50.796;3.290;2024-03-22T00:45:50;10.90;99.90
81902;DHT22;71369;50.796;3.290;2024-03-22T00:48:16;10.90;99.90
81902;DHT22;71369;50.796;3.290;2024-03-22T00:50:42;11.00;99.90
81902;DHT22;71369;50.796;3.290;2024-03-22T00:53:08;10.90;99.90
81902;DHT22;71369;50.796;3.290;2024-03-22T00:55:35;10.80;99.90
81902;DHT22;71369;50.796;3.290;2024-03-22T00:58:01;10.80;99.90
81902;DHT22;71369;50.796;3.290;2024-03-22T01:00:27;10.80;99.90
81902;DHT22;71369;50.796;3.290;2024-03-22T01:02:53;10.80;99.90
81902;DHT22;71369;50.796;3.290;2024-03-22T01:05:18;10.80;99.90
81902;DHT22;71369;50.796;3.290;2024-03-22T01:07:44;10.70;99.90
81902;DHT22;71369;50.796;3.290;2024-03-22T01:10:10;10.60;99.90
81902;DHT22;71369;50.796;3.290;2024-03-22T01:12:37;10.50;99.90
81902;DHT22;71369;50.796;3.290;2024-03-22T01:15:03;10.50;99.90
81902;DHT22;71369;50.796;3.290;2024-03-22T01:17:29;10.40;99.90
81902;DHT22;71369;50.796;3.290;2024-03-22T01:19:55;10.40;99.90
81902;DHT22;71369;50.796;3.290;2024-03-22T01:22:21;10.50;99.90
81902;DHT22;71369;50.796;3.290;2024-03-22T01:24:46;10.40;99.90
81902;DHT22;71369;50.796;3.290;2024-03-22T01:27:13;10.40;99.90
81902;DHT22;71369;50.796;3.290;2024-03-22T01:29:38;10.50;99.90
81902;DHT22;71369;50.796;3.290;2024-03-22T01:32:04;10.40;99.90
81902;DHT22;71369;50.796;3.290;2024-03-22T01:34:33;10.40;99.90
81902;DHT22;71369;50.796;3.290;2024-03-22T01:37:00;10.40;99.90
81902;DHT22;71369;50.796;3.290;2024-03-22T01:39:26;10.30;99.90
81902;DHT22;71369;50.796;3.290;2024-03-22T01:41:51;10.40;99.90
81902;DHT22;71369;50.796;3.290;2024-03-22T01:44:17;10.30;99.90
81902;DHT22;71369;50.796;3.290;2024-03-22T01:46:44;10.30;99.90
81902;DHT22;71369;50.796;3.290;2024-03-22T01:49:12;10.20;99.90
81902;DHT22;71369;50.796;3.290;2024-03-22T01:51:42;10.20;99.90
81902;DHT22;71369;50.796;3.290;2024-03-22T01:54:11;10.20;99.90
81902;DHT22;71369;50.796;3.290;2024-03-22T01:56:38;10.20;99.90
81902;DHT22;71369;50.796;3.290;2024-03-22T01:59:05;10.20;99.90
81902;DHT22;71369;50.796;3.290;2024-03-22T02:01:31;10.20;99.90
81902;DHT22;71369;50.796;3.290;2024-03-22T02:03:57;10.20;99.90
81902;DHT22;71369;50.796;3.290;2024-03-22T02:06:23;10.20;99.90
81902;DHT22;71369;50.796;3.290;2024-03-22T02:08:48;10.10;99.90
81902;DHT22;71369;50.796;3.290;2024-03-22T02:11:14;10.10;99.90
81902;DHT22;71369;50.796;3.290;2024-03-22T02:13:40;10.10;99.90
81902;DHT22;71369;50.796;3.290;2024-03-22T02:16:06;10.10;99.90
81902;DHT22;71369;50.796;3.290;2024-03-22T02:18:32;10.20;99.90
81902;DHT22;71369;50.796;3.290;2024-03-22T02:20:58;10.20;99.90
81902;DHT22;71369;50.796;3.290;2024-03-22T02:23:34;10.20;99.90
81902;DHT22;71369;50.796;3.290;2024-03-22T02:26:03;10.20;99.90
81902;DHT22;71369;50.796;3.290;2024-03-22T02:28:30;10.30;99.90
81902;DHT22;71369;50.796;3.290;2024-03-22T02:30:57;10.30;99.90
81902;DHT22;71369;50.796;3.290;2024-03-22T02:33:23;10.30;99.90
81902;DHT22;71369;50.796;3.290;2024-03-22T02:35:50;10.20;99.90
81902;DHT22;71369;50.796;3.290;2024-03-22T02:38:19;10.30;99.90
81902;DHT22;71369;50.796;3.290;2024-03-22T02:40:46;10.20;99.90
81902;DHT22;71369;50.796;3.290;2024-03-22T02:43:12;10.30;99.90
81902;DHT22;71369;50.796;3.290;2024-03-22T02:45:38;10.30;99.90
81902;DHT22;71369;50.796;3.290;2024-03-22T02:48:04;10.30;99.90
81902;DHT22;71369;50.796;3.290;2024-03-22T02:50:36;10.30;99.90
81902;DHT22;71369;50.796;3.290;2024-03-22T02:53:03;10.20;99.90
81902;DHT22;71369;50.796;3.290;2024-03-22T02:55:30;10.20;99.90
81902;DHT22;71369;50.796;3.290;2024-03-22T02:57:58;10.20;99.90
81902;DHT22;71369;50.796;3.290;2024-03-22T03:00:24;10.30;99.90
81902;DHT22;71369;50.796;3.290;2024-03-22T03:02:50;10.30;99.90
81902;DHT22;71369;50.796;3.290;2024-03-22T03:05:16;10.30;99.90
81902;DHT22;71369;50.796;3.290;2024-03-22T03:07:42;10.20;99.90
81902;DHT22;71369;50.796;3.290;2024-03-22T03:10:07;10.30;99.90
81902;DHT22;71369;50.796;3.290;2024-03-22T03:12:33;10.30;99.90
81902;DHT22;71369;50.796;3.290;2024-03-22T03:14:59;10.30;99.90
81902;DHT22;71369;50.796;3.290;2024-03-22T03:17:25;10.30;99.90
81902;DHT22;71369;50.796;3.290;2024-03-22T03:19:50;10.30;99.90
81902;DHT22;71369;50.796;3.290;2024-03-22T03:22:16;10.30;99.90
81902;DHT22;71369;50.796;3.290;2024-03-22T03:24:43;10.30;99.90
81902;DHT22;71369;50.796;3.290;2024-03-22T03:27:08;10.40;99.90
81902;DHT22;71369;50.796;3.290;2024-03-22T03:29:34;10.40;99.90
81902;DHT22;71369;50.796;3.290;2024-03-22T03:32:00;10.30;99.90
81902;DHT22;71369;50.796;3.290;2024-03-22T03:34:26;10.30;99.90
81902;DHT22;71369;50.796;3.290;2024-03-22T03:36:51;10.30;99.90
81902;DHT22;71369;50.796;3.290;2024-03-22T03:39:17;10.30;99.90
81902;DHT22;71369;50.796;3.290;2024-03-22T03:41:43;10.30;99.90
81902;DHT22;71369;50.796;3.290;2024-03-22T03:44:08;10.30;99.90
81902;DHT22;71369;50.796;3.290;2024-03-22T03:46:43;10.30;99.90
81902;DHT22;71369;50.796;3.290;2024-03-22T03:49:09;10.30;99.90
81902;DHT22;71369;50.796;3.290;2024-03-22T03:51:35;10.40;99.90
81902;DHT22;71369;50.796;3.290;2024-03-22T03:54:01;10.30;99.90
81902;DHT22;71369;50.796;3.290;2024-03-22T03:56:27;10.30;99.90
81902;DHT22;71369;50.796;3.290;2024-03-22T03:58:53;10.30;99.90
81902;DHT22;71369;50.796;3.290;2024-03-22T04:01:19;10.20;99.90
81902;DHT22;71369;50.796;3.290;2024-03-22T04:03:45;10.30;99.90
81902;DHT22;71369;50.796;3.290;2024-03-22T04:06:11;10.30;99.90
81902;DHT22;71369;50.796;3.290;2024-03-22T04:08:37;10.30;99.90
81902;DHT22;71369;50.796;3.290;2024-03-22T04:11:02;10.30;99.90
81902;DHT22;71369;50.796;3.290;2024-03-22T04:13:28;10.30;99.90
81902;DHT22;71369;50.796;3.290;2024-03-22T04:15:54;10.30;99.90
81902;DHT22;71369;50.796;3.290;2024-03-22T04:18:24;10.20;99.90
81902;DHT22;71369;50.796;3.290;2024-03-22T04:20:56;10.20;99.90
81902;DHT22;71369;50.796;3.290;2024-03-22T04:23:23;10.30;99.90
81902;DHT22;71369;50.796;3.290;2024-03-22T04:26:01;10.30;99.90
81902;DHT22;71369;50.796;3.290;2024-03-22T04:28:27;10.30;99.90
81902;DHT22;71369;50.796;3.290;2024-03-22T04:31:01;10.30;99.90
81902;DHT22;71369;50.796;3.290;2024-03-22T04:33:28;10.40;99.90
81902;DHT22;71369;50.796;3.290;2024-03-22T04:35:55;10.40;99.90
81902;DHT22;71369;50.796;3.290;2024-03-22T04:38:25;10.30;99.90
81902;DHT22;71369;50.796;3.290;2024-03-22T04:40:51;10.30;99.90
81902;DHT22;71369;50.796;3.290;2024-03-22T04:43:18;10.30;99.90
81902;DHT22;71369;50.796;3.290;2024-03-22T04:45:44;10.30;99.90
81902;DHT22;71369;50.796;3.290;2024-03-22T04:48:13;10.30;99.90
81902;DHT22;71369;50.796;3.290;2024-03-22T04:50:39;10.20;99.90
81902;DHT22;71369;50.796;3.290;2024-03-22T04:53:04;10.20;99.90
81902;DHT22;71369;50.796;3.290;2024-03-22T04:55:31;10.20;99.90
81902;DHT22;71369;50.796;3.290;2024-03-22T04:57:58;10.20;99.90
81902;DHT22;71369;50.796;3.290;2024-03-22T05:00:24;10.20;99.90
81902;DHT22;71369;50.796;3.290;2024-03-22T05:02:51;10.10;99.90
81902;DHT22;71369;50.796;3.290;2024-03-22T05:05:17;10.10;99.90
81902;DHT22;71369;50.796;3.290;2024-03-22T05:07:42;10.10;99.90
81902;DHT22;71369;50.796;3.290;2024-03-22T05:10:08;10.00;99.90
81902;DHT22;71369;50.796;3.290;2024-03-22T05:12:35;10.00;99.90
81902;DHT22;71369;50.796;3.290;2024-03-22T05:15:02;10.00;99.90
81902;DHT22;71369;50.796;3.290;2024-03-22T05:17:29;10.00;99.90
81902;DHT22;71369;50.796;3.290;2024-03-22T05:19:57;10.00;99.90
81902;DHT22;71369;50.796;3.290;2024-03-22T05:22:26;10.00;99.90
81902;DHT22;71369;50.796;3.290;2024-03-22T05:24:51;10.00;99.90
81902;DHT22;71369;50.796;3.290;2024-03-22T05:27:17;10.00;99.90
81902;DHT22;71369;50.796;3.290;2024-03-22T05:29:43;10.00;99.90
81902;DHT22;71369;50.796;3.290;2024-03-22T05:32:09;10.10;99.90
81902;DHT22;71369;50.796;3.290;2024-03-22T05:34:35;10.00;99.90
81902;DHT22;71369;50.796;3.290;2024-03-22T05:37:01;10.00;99.90
81902;DHT22;71369;50.796;3.290;2024-03-22T05:39:27;10.00;99.90
81902;DHT22;71369;50.796;3.290;2024-03-22T05:41:53;10.00;99.90
81902;DHT22;71369;50.796;3.290;2024-03-22T05:44:23;10.00;99.90
81902;DHT22;71369;50.796;3.290;2024-03-22T05:46:49;10.00;99.90
81902;DHT22;71369;50.796;3.290;2024-03-22T05:49:15;10.10;99.90
81902;DHT22;71369;50.796;3.290;2024-03-22T05:51:41;10.00;99.90
81902;DHT22;71369;50.796;3.290;2024-03-22T05:54:07;10.00;99.90
81902;DHT22;71369;50.796;3.290;2024-03-22T05:56:33;9.90;99.90
81902;DHT22;71369;50.796;3.290;2024-03-22T05:58:58;9.90;99.90
81902;DHT22;71369;50.796;3.290;2024-03-22T06:01:25;9.90;99.90
81902;DHT22;71369;50.796;3.290;2024-03-22T06:03:51;9.90;99.90
81902;DHT22;71369;50.796;3.290;2024-03-22T06:06:16;9.90;99.90
81902;DHT22;71369;50.796;3.290;2024-03-22T06:08:42;9.90;99.90
81902;DHT22;71369;50.796;3.290;2024-03-22T06:11:10;9.90;99.90
81902;DHT22;71369;50.796;3.290;2024-03-22T06:13:36;10.00;99.90
81902;DHT22;71369;50.796;3.290;2024-03-22T06:16:02;9.90;99.90
81902;DHT22;71369;50.796;3.290;2024-03-22T06:18:29;9.90;99.90
81902;DHT22;71369;50.796;3.290;2024-03-22T06:20:55;9.90;99.90
81902;DHT22;71369;50.796;3.290;2024-03-22T06:23:21;9.90;99.90
81902;DHT22;71369;50.796;3.290;2024-03-22T06:25:55;9.90;99.90
81902;DHT22;71369;50.796;3.290;2024-03-22T06:28:23;10.00;99.90
81902;DHT22;71369;50.796;3.290;2024-03-22T06:30:49;10.00;99.90
81902;DHT22;71369;50.796;3.290;2024-03-22T06:33:15;10.00;99.90
81902;DHT22;71369;50.796;3.290;2024-03-22T06:35:41;10.10;99.90
81902;DHT22;71369;50.796;3.290;2024-03-22T06:38:07;10.10;99.90
81902;DHT22;71369;50.796;3.290;2024-03-22T06:40:33;10.10;99.90
81902;DHT22;71369;50.796;3.290;2024-03-22T06:43:10;10.20;99.90
81902;DHT22;71369;50.796;3.290;2024-03-22T06:45:36;10.20;99.90
81902;DHT22;71369;50.796;3.290;2024-03-22T06:48:05;10.20;99.90
81902;DHT22;71369;50.796;3.290;2024-03-22T06:50:31;10.30;99.90
81902;DHT22;71369;50.796;3.290;2024-03-22T06:52:56;10.40;99.90
81902;DHT22;71369;50.796;3.290;2024-03-22T06:55:22;10.40;99.90
81902;DHT22;71369;50.796;3.290;2024-03-22T06:57:49;10.40;99.90
81902;DHT22;71369;50.796;3.290;2024-03-22T07:00:15;10.40;99.90
81902;DHT22;71369;50.796;3.290;2024-03-22T07:02:41;10.40;99.90
81902;DHT22;71369;50.796;3.290;2024-03-22T07:05:08;10.40;99.90
81902;DHT22;71369;50.796;3.290;2024-03-22T07:07:34;10.40;99.90
81902;DHT22;71369;50.796;3.290;2024-03-22T07:10:00;10.50;99.90
81902;DHT22;71369;50.796;3.290;2024-03-22T07:12:26;10.50;99.90
81902;DHT22;71369;50.796;3.290;2024-03-22T07:14:52;10.50;99.90
81902;DHT22;71369;50.796;3.290;2024-03-22T07:17:18;10.60;99.90
81902;DHT22;71369;50.796;3.290;2024-03-22T07:19:50;10.50;99.90
81902;DHT22;71369;50.796;3.290;2024-03-22T07:22:16;10.60;99.90
81902;DHT22;71369;50.796;3.290;2024-03-22T07:24:43;10.70;99.90
81902;DHT22;71369;50.796;3.290;2024-03-22T07:27:08;10.70;99.90
81902;DHT22;71369;50.796;3.290;2024-03-22T07:29:34;10.80;99.90
81902;DHT22;71369;50.796;3.290;2024-03-22T07:32:00;10.80;99.90
81902;DHT22;71369;50.796;3.290;2024-03-22T07:34:25;10.80;99.90
81902;DHT22;71369;50.796;3.290;2024-03-22T07:36:51;10.90;99.90
81902;DHT22;71369;50.796;3.290;2024-03-22T07:39:17;11.00;99.90
81902;DHT22;71369;50.796;3.290;2024-03-22T07:41:42;11.00;99.90
81902;DHT22;71369;50.796;3.290;2024-03-22T07:44:08;11.00;99.90
81902;DHT22;71369;50.796;3.290;2024-03-22T07:46:34;11.00;99.90
81902;DHT22;71369;50.796;3.290;2024-03-22T07:48:59;11.10;99.90
81902;DHT22;71369;50.796;3.290;2024-03-22T07:51:25;11.20;99.90
81902;DHT22;71369;50.796;3.290;2024-03-22T07:53:51;11.30;99.90
81902;DHT22;71369;50.796;3.290;2024-03-22T07:56:17;11.30;99.90
81902;DHT22;71369;50.796;3.290;2024-03-22T07:58:44;11.40;99.90
81902;DHT22;71369;50.796;3.290;2024-03-22T08:01:10;11.40;99.90
81902;DHT22;71369;50.796;3.290;2024-03-22T08:03:36;11.50;99.90
81902;DHT22;71369;50.796;3.290;2024-03-22T08:06:01;11.50;99.90
81902;DHT22;71369;50.796;3.290;2024-03-22T08:08:27;11.50;99.90
81902;DHT22;71369;50.796;3.290;2024-03-22T08:10:53;11.50;99.90
81902;DHT22;71369;50.796;3.290;2024-03-22T08:13:19;11.50;99.90
81902;DHT22;71369;50.796;3.290;2024-03-22T08:15:44;11.70;99.90
81902;DHT22;71369;50.796;3.290;2024-03-22T08:18:11;11.80;99.90
81902;DHT22;71369;50.796;3.290;2024-03-22T08:20:38;11.80;99.90
81902;DHT22;71369;50.796;3.290;2024-03-22T08:23:05;11.80;99.90
81902;DHT22;71369;50.796;3.290;2024-03-22T08:25:31;11.90;99.90
81902;DHT22;71369;50.796;3.290;2024-03-22T08:27:57;12.00;99.90
81902;DHT22;71369;50.796;3.290;2024-03-22T08:30:24;12.00;99.90
81902;DHT22;71369;50.796;3.290;2024-03-22T08:32:50;12.10;99.90
81902;DHT22;71369;50.796;3.290;2024-03-22T08:35:16;12.00;99.90
81902;DHT22;71369;50.796;3.290;2024-03-22T08:37:42;11.80;99.90
81902;DHT22;71369;50.796;3.290;2024-03-22T08:40:08;11.90;99.90
81902;DHT22;71369;50.796;3.290;2024-03-22T08:42:34;12.00;99.90
81902;DHT22;71369;50.796;3.290;2024-03-22T08:44:59;12.00;99.90
81902;DHT22;71369;50.796;3.290;2024-03-22T08:47:25;12.20;99.90
81902;DHT22;71369;50.796;3.290;2024-03-22T08:49:51;12.40;99.90
81902;DHT22;71369;50.796;3.290;2024-03-22T08:52:17;12.60;99.90
81902;DHT22;71369;50.796;3.290;2024-03-22T08:54:42;12.80;99.90
81902;DHT22;71369;50.796;3.290;2024-03-22T08:57:08;12.90;99.40
81902;DHT22;71369;50.796;3.290;2024-03-22T08:59:34;13.30;98.60
81902;DHT22;71369;50.796;3.290;2024-03-22T09:02:00;13.30;97.60
81902;DHT22;71369;50.796;3.290;2024-03-22T09:04:26;13.30;97.40
81902;DHT22;71369;50.796;3.290;2024-03-22T09:06:52;13.30;97.20
81902;DHT22;71369;50.796;3.290;2024-03-22T09:09:20;13.30;97.00
81902;DHT22;71369;50.796;3.290;2024-03-22T09:11:46;13.30;97.00
81902;DHT22;71369;50.796;3.290;2024-03-22T09:14:11;13.60;96.20
81902;DHT22;71369;50.796;3.290;2024-03-22T09:16:39;13.60;95.40
81902;DHT22;71369;50.796;3.290;2024-03-22T09:19:07;13.50;95.60
81902;DHT22;71369;50.796;3.290;2024-03-22T09:21:32;13.30;96.10
81902;DHT22;71369;50.796;3.290;2024-03-22T09:23:58;13.10;97.10
81902;DHT22;71369;50.796;3.290;2024-03-22T09:26:24;13.00;96.40
81902;DHT22;71369;50.796;3.290;2024-03-22T09:28:50;12.80;95.80
81902;DHT22;71369;50.796;3.290;2024-03-22T09:31:16;12.70;96.80
81902;DHT22;71369;50.796;3.290;2024-03-22T09:33:42;12.70;97.30
81902;DHT22;71369;50.796;3.290;2024-03-22T09:36:08;12.70;97.00
81902;DHT22;71369;50.796;3.290;2024-03-22T09:38:34;12.70;97.60
81902;DHT22;71369;50.796;3.290;2024-03-22T09:41:00;12.60;98.30
81902;DHT22;71369;50.796;3.290;2024-03-22T09:43:27;12.70;98.40
81902;DHT22;71369;50.796;3.290;2024-03-22T09:45:55;12.80;98.80
81902;DHT22;71369;50.796;3.290;2024-03-22T09:48:21;12.90;98.30
81902;DHT22;71369;50.796;3.290;2024-03-22T09:50:48;13.20;97.10
81902;DHT22;71369;50.796;3.290;2024-03-22T09:53:19;13.20;95.60
81902;DHT22;71369;50.796;3.290;2024-03-22T09:55:47;13.30;96.50
81902;DHT22;71369;50.796;3.290;2024-03-22T09:58:13;13.10;96.20
81902;DHT22;71369;50.796;3.290;2024-03-22T10:00:39;13.30;97.40
81902;DHT22;71369;50.796;3.290;2024-03-22T10:03:05;13.40;95.40
81902;DHT22;71369;50.796;3.290;2024-03-22T10:05:31;13.30;94.70
81902;DHT22;71369;50.796;3.290;2024-03-22T10:07:57;13.40;95.70
81902;DHT22;71369;50.796;3.290;2024-03-22T10:10:23;13.70;94.80
81902;DHT22;71369;50.796;3.290;2024-03-22T10:12:49;13.80;94.60
81902;DHT22;71369;50.796;3.290;2024-03-22T10:15:15;14.00;94.00
81902;DHT22;71369;50.796;3.290;2024-03-22T10:17:42;14.10;92.70
81902;DHT22;71369;50.796;3.290;2024-03-22T10:20:23;14.10;92.80
81902;DHT22;71369;50.796;3.290;2024-03-22T10:22:56;13.80;93.50
81902;DHT22;71369;50.796;3.290;2024-03-22T10:25:26;13.70;94.00
81902;DHT22;71369;50.796;3.290;2024-03-22T10:27:56;13.60;94.40
81902;DHT22;71369;50.796;3.290;2024-03-22T10:30:24;13.40;95.60
81902;DHT22;71369;50.796;3.290;2024-03-22T10:32:53;13.20;96.60
81902;DHT22;71369;50.796;3.290;2024-03-22T10:35:19;12.90;97.00
81902;DHT22;71369;50.796;3.290;2024-03-22T10:37:45;12.80;98.10
81902;DHT22;71369;50.796;3.290;2024-03-22T10:40:11;12.80;97.40
81902;DHT22;71369;50.796;3.290;2024-03-22T10:42:38;12.70;98.70
81902;DHT22;71369;50.796;3.290;2024-03-22T10:45:06;12.70;98.70
81902;DHT22;71369;50.796;3.290;2024-03-22T10:47:33;12.70;99.30
81902;DHT22;71369;50.796;3.290;2024-03-22T10:52:41;12.50;99.60
81902;DHT22;71369;50.796;3.290;2024-03-22T10:55:17;12.50;99.80
81902;DHT22;71369;50.796;3.290;2024-03-22T10:57:46;12.50;99.90
81902;DHT22;71369;50.796;3.290;2024-03-22T11:00:12;12.50;99.90
81902;DHT22;71369;50.796;3.290;2024-03-22T11:02:43;12.60;99.90
81902;DHT22;71369;50.796;3.290;2024-03-22T11:05:17;12.40;99.90
81902;DHT22;71369;50.796;3.290;2024-03-22T11:07:44;12.50;99.90
81902;DHT22;71369;50.796;3.290;2024-03-22T11:10:11;12.60;99.90
81902;DHT22;71369;50.796;3.290;2024-03-22T11:12:38;12.60;99.90
81902;DHT22;71369;50.796;3.290;2024-03-22T11:15:05;12.70;99.90
81902;DHT22;71369;50.796;3.290;2024-03-22T11:17:31;12.60;99.90
81902;DHT22;71369;50.796;3.290;2024-03-22T11:19:57;12.60;99.90
81902;DHT22;71369;50.796;3.290;2024-03-22T11:22:24;12.50;99.90
81902;DHT22;71369;50.796;3.290;2024-03-22T11:24:50;12.40;99.90
81902;DHT22;71369;50.796;3.290;2024-03-22T11:27:16;12.50;99.90
81902;DHT22;71369;50.796;3.290;2024-03-22T11:29:42;12.50;99.90
81902;DHT22;71369;50.796;3.290;2024-03-22T11:32:09;12.40;99.90
81902;DHT22;71369;50.796;3.290;2024-03-22T11:34:39;12.50;99.90
81902;DHT22;71369;50.796;3.290;2024-03-22T11:37:06;12.40;99.90
81902;DHT22;71369;50.796;3.290;2024-03-22T11:39:36;12.40;99.90
81902;DHT22;71369;50.796;3.290;2024-03-22T11:42:07;12.50;99.90
81902;DHT22;71369;50.796;3.290;2024-03-22T11:44:37;12.40;99.90
81902;DHT22;71369;50.796;3.290;2024-03-22T11:47:04;12.30;99.90
81902;DHT22;71369;50.796;3.290;2024-03-22T11:49:29;12.30;99.90
81902;DHT22;71369;50.796;3.290;2024-03-22T11:51:58;12.30;99.90
81902;DHT22;71369;50.796;3.290;2024-03-22T11:54:24;12.30;99.90
81902;DHT22;71369;50.796;3.290;2024-03-22T11:56:50;12.30;99.90
81902;DHT22;71369;50.796;3.290;2024-03-22T11:59:19;12.20;99.90
81902;DHT22;71369;50.796;3.290;2024-03-22T12:01:46;12.20;99.90
81902;DHT22;71369;50.796;3.290;2024-03-22T12:04:12;12.20;99.90
81902;DHT22;71369;50.796;3.290;2024-03-22T12:06:46;12.20;99.90
81902;DHT22;71369;50.796;3.290;2024-03-22T12:09:12;12.20;99.90
81902;DHT22;71369;50.796;3.290;2024-03-22T12:11:40;12.10;99.90
81902;DHT22;71369;50.796;3.290;2024-03-22T12:14:06;12.10;99.90
81902;DHT22;71369;50.796;3.290;2024-03-22T12:16:32;12.20;99.90
81902;DHT22;71369;50.796;3.290;2024-03-22T12:18:58;12.10;99.90
81902;DHT22;71369;50.796;3.290;2024-03-22T12:21:24;12.10;99.90
81902;DHT22;71369;50.796;3.290;2024-03-22T12:23:50;12.10;99.90
81902;DHT22;71369;50.796;3.290;2024-03-22T12:26:16;11.90;99.90
81902;DHT22;71369;50.796;3.290;2024-03-22T12:28:42;11.80;99.90
81902;DHT22;71369;50.796;3.290;2024-03-22T12:31:09;11.60;99.90
81902;DHT22;71369;50.796;3.290;2024-03-22T12:33:38;11.70;99.90
81902;DHT22;71369;50.796;3.290;2024-03-22T12:36:04;11.80;99.90
81902;DHT22;71369;50.796;3.290;2024-03-22T12:38:30;11.80;99.90
81902;DHT22;71369;50.796;3.290;2024-03-22T12:40:56;11.60;99.90
81902;DHT22;71369;50.796;3.290;2024-03-22T12:43:22;11.50;99.90
81902;DHT22;71369;50.796;3.290;2024-03-22T12:45:47;11.50;99.90
81902;DHT22;71369;50.796;3.290;2024-03-22T12:48:13;11.60;99.90
81902;DHT22;71369;50.796;3.290;2024-03-22T12:50:39;11.60;99.90
81902;DHT22;71369;50.796;3.290;2024-03-22T12:53:05;11.70;99.90
81902;DHT22;71369;50.796;3.290;2024-03-22T12:55:30;11.70;99.90
81902;DHT22;71369;50.796;3.290;2024-03-22T12:57:57;11.70;99.90
81902;DHT22;71369;50.796;3.290;2024-03-22T13:00:23;11.80;99.90
81902;DHT22;71369;50.796;3.290;2024-03-22T13:02:52;12.00;99.90
81902;DHT22;71369;50.796;3.290;2024-03-22T13:05:18;12.10;99.90
81902;DHT22;71369;50.796;3.290;2024-03-22T13:07:43;11.90;99.90
81902;DHT22;71369;50.796;3.290;2024-03-22T13:10:09;12.00;99.90
81902;DHT22;71369;50.796;3.290;2024-03-22T13:12:35;11.80;99.90
81902;DHT22;71369;50.796;3.290;2024-03-22T13:15:02;11.60;99.90
81902;DHT22;71369;50.796;3.290;2024-03-22T13:17:27;11.40;99.90
81902;DHT22;71369;50.796;3.290;2024-03-22T13:19:53;11.40;99.90
81902;DHT22;71369;50.796;3.290;2024-03-22T13:22:19;11.30;99.90
81902;DHT22;71369;50.796;3.290;2024-03-22T13:24:45;11.20;99.90
81902;DHT22;71369;50.796;3.290;2024-03-22T13:27:12;11.20;99.90
81902;DHT22;71369;50.796;3.290;2024-03-22T13:29:39;11.30;99.90
81902;DHT22;71369;50.796;3.290;2024-03-22T13:32:05;11.20;99.90
81902;DHT22;71369;50.796;3.290;2024-03-22T13:34:35;11.20;99.90
81902;DHT22;71369;50.796;3.290;2024-03-22T13:37:01;11.20;99.90
81902;DHT22;71369;50.796;3.290;2024-03-22T13:39:27;11.10;99.90
81902;DHT22;71369;50.796;3.290;2024-03-22T13:41:55;11.00;99.90
81902;DHT22;71369;50.796;3.290;2024-03-22T13:44:21;10.80;99.90
81902;DHT22;71369;50.796;3.290;2024-03-22T13:46:50;10.80;99.90
81902;DHT22;71369;50.796;3.290;2024-03-22T13:49:17;10.90;99.90
81902;DHT22;71369;50.796;3.290;2024-03-22T13:52:06;10.90;99.90
81902;DHT22;71369;50.796;3.290;2024-03-22T13:54:46;11.00;99.90
81902;DHT22;71369;50.796;3.290;2024-03-22T13:57:12;11.00;99.90
81902;DHT22;71369;50.796;3.290;2024-03-22T13:59:38;11.00;99.90
81902;DHT22;71369;50.796;3.290;2024-03-22T14:02:06;11.00;99.90
81902;DHT22;71369;50.796;3.290;2024-03-22T14:04:33;11.00;99.90
81902;DHT22;71369;50.796;3.290;2024-03-22T14:06:59;11.00;99.90
81902;DHT22;71369;50.796;3.290;2024-03-22T14:09:24;11.00;99.90
81902;DHT22;71369;50.796;3.290;2024-03-22T14:12:00;11.00;99.90
81902;DHT22;71369;50.796;3.290;2024-03-22T14:14:26;11.00;99.90
81902;DHT22;71369;50.796;3.290;2024-03-22T14:16:53;10.90;99.90
81902;DHT22;71369;50.796;3.290;2024-03-22T14:19:21;10.90;99.90
81902;DHT22;71369;50.796;3.290;2024-03-22T14:21:47;10.80;99.90
81902;DHT22;71369;50.796;3.290;2024-03-22T14:24:14;10.80;99.90
81902;DHT22;71369;50.796;3.290;2024-03-22T14:26:41;10.80;99.90
81902;DHT22;71369;50.796;3.290;2024-03-22T14:29:10;10.70;99.90
81902;DHT22;71369;50.796;3.290;2024-03-22T14:31:36;10.60;99.90
81902;DHT22;71369;50.796;3.290;2024-03-22T14:34:02;10.70;99.90
81902;DHT22;71369;50.796;3.290;2024-03-22T14:36:31;10.60;99.90
81902;DHT22;71369;50.796;3.290;2024-03-22T14:38:58;10.60;99.90
81902;DHT22;71369;50.796;3.290;2024-03-22T14:41:24;10.60;99.90
81902;DHT22;71369;50.796;3.290;2024-03-22T14:43:50;10.60;99.90
81902;DHT22;71369;50.796;3.290;2024-03-22T14:46:16;10.60;99.90
81902;DHT22;71369;50.796;3.290;2024-03-22T14:48:44;10.50;99.90
81902;DHT22;71369;50.796;3.290;2024-03-22T14:51:10;10.50;99.90
81902;DHT22;71369;50.796;3.290;2024-03-22T14:53:43;10.60;99.90
81902;DHT22;71369;50.796;3.290;2024-03-22T14:56:44;10.50;99.90
81902;DHT22;71369;50.796;3.290;2024-03-22T14:59:11;10.50;99.90
81902;DHT22;71369;50.796;3.290;2024-03-22T15:01:37;10.50;99.90
81902;DHT22;71369;50.796;3.290;2024-03-22T15:04:04;10.60;99.90
81902;DHT22;71369;50.796;3.290;2024-03-22T15:06:39;10.50;99.90
81902;DHT22;71369;50.796;3.290;2024-03-22T15:09:05;10.60;99.90
81902;DHT22;71369;50.796;3.290;2024-03-22T15:11:50;10.50;99.90
81902;DHT22;71369;50.796;3.290;2024-03-22T15:14:16;10.40;99.90
81902;DHT22;71369;50.796;3.290;2024-03-22T15:17:03;10.50;99.90
81902;DHT22;71369;50.796;3.290;2024-03-22T15:19:28;10.50;99.90
81902;DHT22;71369;50.796;3.290;2024-03-22T15:21:54;10.50;99.90
81902;DHT22;71369;50.796;3.290;2024-03-22T15:24:20;10.50;99.90
81902;DHT22;71369;50.796;3.290;2024-03-22T15:26:49;10.50;99.90
81902;DHT22;71369;50.796;3.290;2024-03-22T15:29:16;10.50;99.90
81902;DHT22;71369;50.796;3.290;2024-03-22T15:31:52;10.50;99.90
81902;DHT22;71369;50.796;3.290;2024-03-22T15:34:18;10.60;99.90